createdAt,value
2018-06-20T00:07:03.367Z,67.40
2018-06-20T00:10:37.022Z,67.40
2018-06-20T00:14:10.432Z,67.70
2018-06-20T00:17:44.136Z,67.80
2018-06-20T00:21:17.469Z,68.20
2018-06-20T00:24:50.842Z,68.30
2018-06-20T00:28:24.149Z,68.50
2018-06-20T00:31:57.496Z,68.70
2018-06-20T00:35:33.141Z,68.80
2018-06-20T00:39:08.248Z,69.00
2018-06-20T00:42:41.609Z,68.90
2018-06-20T00:46:14.864Z,69.00
2018-06-20T00:49:48.091Z,69.00
2018-06-20T00:53:21.338Z,69.10
2018-06-20T01:00:27.636Z,69.10
2018-06-20T01:04:00.896Z,69.20
2018-06-20T01:07:34.135Z,69.40
2018-06-20T01:11:07.396Z,69.50
2018-06-20T01:14:40.629Z,69.80
2018-06-20T01:25:19.847Z,70.50
2018-06-20T01:28:53.126Z,70.70
2018-06-20T01:35:59.441Z,70.80
2018-06-20T01:39:32.668Z,71.00
2018-06-20T01:43:06.057Z,71.10
2018-06-20T01:46:39.384Z,71.40
2018-06-20T01:50:12.615Z,71.60
2018-06-20T01:57:18.900Z,71.70
2018-06-20T02:00:52.137Z,71.70
2018-06-20T02:04:25.372Z,71.90
2018-06-20T02:07:58.616Z,71.90
2018-06-20T02:11:31.900Z,71.50
2018-06-20T02:15:05.173Z,71.40
2018-06-20T02:18:38.608Z,71.20
2018-06-20T02:25:44.911Z,71.00
2018-06-20T02:29:18.162Z,70.80
2018-06-20T02:32:51.416Z,70.70
2018-06-20T02:36:30.193Z,70.60
2018-06-20T02:40:03.453Z,70.60
2018-06-20T02:43:36.707Z,70.70
2018-06-20T02:47:09.952Z,70.90
2018-06-20T02:50:43.191Z,71.10
2018-06-20T02:54:16.448Z,71.40
2018-06-20T02:57:49.719Z,71.50
2018-06-20T03:01:24.151Z,72.40
2018-06-20T03:08:30.438Z,72.60
2018-06-20T03:12:03.708Z,71.80
2018-06-20T03:15:36.944Z,71.90
2018-06-20T03:19:10.193Z,71.90
2018-06-20T03:22:43.447Z,72.00
2018-06-20T03:26:16.684Z,72.00
2018-06-20T03:29:49.926Z,71.90
2018-06-20T03:33:23.226Z,71.60
2018-06-20T03:36:56.525Z,71.30
2018-06-20T03:40:29.765Z,71.40
2018-06-20T03:47:36.175Z,71.30
2018-06-20T03:51:09.417Z,71.10
2018-06-20T03:54:42.668Z,71.00
2018-06-20T03:58:15.921Z,71.00
2018-06-20T04:01:49.180Z,71.00
2018-06-20T04:05:22.425Z,70.90
2018-06-20T04:08:55.685Z,71.00
2018-06-20T04:12:28.956Z,71.10
2018-06-20T04:16:02.200Z,71.00
2018-06-20T04:19:35.488Z,70.90
2018-06-20T04:23:08.733Z,70.80
2018-06-20T04:26:42.006Z,70.60
2018-06-20T04:30:15.318Z,70.20
2018-06-20T04:33:50.736Z,69.90
2018-06-20T04:37:24.007Z,69.50
2018-06-20T04:40:57.844Z,69.00
2018-06-20T04:44:31.931Z,68.60
2018-06-20T04:51:38.200Z,67.70
2018-06-20T04:55:11.815Z,67.50
2018-06-20T04:58:45.158Z,67.60
2018-06-20T05:05:51.471Z,67.50
2018-06-20T05:09:24.696Z,67.40
2018-06-20T05:12:58.000Z,67.00
2018-06-20T05:16:31.260Z,66.50
2018-06-20T05:20:04.532Z,66.30
2018-06-20T05:23:37.853Z,66.90
2018-06-20T05:27:11.113Z,66.40
2018-06-20T05:30:49.906Z,65.70
2018-06-20T05:34:23.136Z,65.80
2018-06-20T05:37:56.395Z,65.70
2018-06-20T05:41:29.711Z,65.50
2018-06-20T05:45:02.973Z,65.40
2018-06-20T05:48:36.261Z,65.40
2018-06-20T05:52:09.600Z,65.50
2018-06-20T05:55:42.867Z,65.00
2018-06-20T05:59:16.141Z,64.60
2018-06-20T06:02:49.401Z,64.20
2018-06-20T06:06:22.645Z,63.70
2018-06-20T06:09:56.450Z,63.20
2018-06-20T06:13:31.071Z,62.90
2018-06-20T06:17:05.658Z,62.70
2018-06-20T06:20:42.345Z,62.40
2018-06-20T06:24:21.609Z,62.70
2018-06-20T06:28:18.095Z,62.80
2018-06-20T06:31:51.425Z,62.70
2018-06-20T06:39:01.733Z,62.00
2018-06-20T06:42:34.979Z,62.00
2018-06-20T06:46:09.942Z,61.40
2018-06-20T06:49:48.946Z,60.40
2018-06-20T06:53:29.138Z,59.80
2018-06-20T06:57:02.408Z,59.70
2018-06-20T07:00:35.660Z,59.30
2018-06-20T07:04:08.913Z,58.50
2018-06-20T07:07:42.174Z,57.90
2018-06-20T07:11:15.433Z,57.40
2018-06-20T07:14:48.973Z,56.50
2018-06-20T07:18:22.232Z,56.20
2018-06-20T07:21:55.491Z,55.70
2018-06-20T07:25:28.975Z,55.30
2018-06-20T07:29:02.224Z,54.80
2018-06-20T07:32:35.472Z,54.20
2018-06-20T07:36:08.758Z,53.40
2018-06-20T07:39:42.021Z,52.70
2018-06-20T07:43:15.256Z,52.10
2018-06-20T07:46:48.562Z,51.30
2018-06-20T07:50:21.777Z,50.70
2018-06-20T07:53:55.025Z,50.20
2018-06-20T07:57:28.334Z,50.10
2018-06-20T08:01:07.031Z,50.30
2018-06-20T08:04:45.685Z,49.10
2018-06-20T08:08:24.340Z,49.00
2018-06-20T08:15:41.402Z,49.00
2018-06-20T08:19:20.181Z,48.70
2018-06-20T08:22:53.421Z,48.50
2018-06-20T08:26:26.661Z,48.20
2018-06-20T08:30:01.424Z,47.90
2018-06-20T08:33:34.684Z,47.60
2018-06-20T08:37:07.970Z,47.10
2018-06-20T08:40:41.219Z,46.60
2018-06-20T08:44:14.488Z,46.30
2018-06-20T08:47:47.737Z,45.70
2018-06-20T08:51:20.976Z,45.10
2018-06-20T08:54:54.209Z,44.70
2018-06-20T08:58:27.453Z,44.80
2018-06-20T09:02:00.693Z,43.80
2018-06-20T09:05:39.213Z,43.60
2018-06-20T09:09:17.920Z,43.90
2018-06-20T09:12:56.621Z,44.10
2018-06-20T09:16:35.133Z,43.50
2018-06-20T09:20:08.444Z,43.30
2018-06-20T09:23:41.738Z,43.40
2018-06-20T09:27:15.481Z,43.30
2018-06-20T09:30:48.753Z,42.60
2018-06-20T09:34:21.996Z,42.30
2018-06-20T09:37:55.276Z,42.10
2018-06-20T09:41:29.641Z,41.40
2018-06-20T09:45:02.906Z,41.00
2018-06-20T09:48:36.212Z,41.00
2018-06-20T09:52:09.466Z,40.90
2018-06-20T09:55:42.704Z,41.10
2018-06-20T09:59:21.439Z,41.40
2018-06-20T10:03:00.035Z,41.80
2018-06-20T10:06:38.984Z,41.20
2018-06-20T10:10:17.529Z,40.90
2018-06-20T10:13:59.334Z,40.70
2018-06-20T10:17:33.693Z,41.00
2018-06-20T10:21:08.164Z,41.00
2018-06-20T10:24:41.503Z,40.70
2018-06-20T10:28:15.094Z,41.00
2018-06-20T10:31:49.618Z,40.50
2018-06-20T10:35:23.553Z,40.60
2018-06-20T10:38:57.538Z,40.80
2018-06-20T10:42:33.555Z,41.00
2018-06-20T10:46:12.471Z,41.20
2018-06-20T10:49:46.481Z,41.50
2018-06-20T10:53:20.036Z,41.40
2018-06-20T11:00:41.655Z,41.10
2018-06-20T11:04:20.214Z,39.60
2018-06-20T11:11:38.555Z,39.40
2018-06-20T11:15:11.876Z,40.00
2018-06-20T11:18:48.037Z,40.30
2018-06-20T11:22:21.554Z,40.10
2018-06-20T11:25:55.419Z,39.60
2018-06-20T11:29:28.942Z,40.40
2018-06-20T11:33:02.308Z,39.70
2018-06-20T11:36:37.478Z,39.60
2018-06-20T11:40:10.958Z,39.60
2018-06-20T11:43:44.249Z,39.30
2018-06-20T11:50:56.893Z,39.60
2018-06-20T11:58:13.013Z,39.30
2018-06-20T12:01:51.769Z,39.50
2018-06-20T12:05:30.593Z,39.70
2018-06-20T12:09:10.934Z,39.70
2018-06-20T12:12:50.657Z,39.60
2018-06-20T12:16:33.448Z,39.40
2018-06-20T12:20:12.250Z,39.20
2018-06-20T12:31:13.174Z,39.40
2018-06-20T12:34:51.750Z,39.40
2018-06-20T12:38:30.598Z,40.10
2018-06-20T12:42:09.243Z,39.50
2018-06-20T12:49:18.833Z,39.60
2018-06-20T12:52:52.233Z,39.40
2018-06-20T12:56:25.597Z,39.60
2018-06-20T12:59:58.921Z,39.60
2018-06-20T13:03:32.291Z,40.10
2018-06-20T13:10:38.896Z,39.50
2018-06-20T13:17:46.246Z,38.10
2018-06-20T13:21:19.612Z,37.80
2018-06-20T13:24:53.826Z,37.60
2018-06-20T13:28:27.170Z,37.50
2018-06-20T13:32:05.800Z,37.60
2018-06-20T13:35:44.466Z,37.70
2018-06-20T13:39:23.232Z,37.40
2018-06-20T13:43:01.797Z,37.30
2018-06-20T13:46:40.498Z,36.90
2018-06-20T13:50:13.851Z,37.00
2018-06-20T13:53:47.169Z,36.90
2018-06-20T13:57:20.503Z,36.20
2018-06-20T14:00:53.859Z,36.00
2018-06-20T14:04:27.179Z,36.30
2018-06-20T14:08:00.564Z,35.50
2018-06-20T14:11:33.931Z,35.20
2018-06-20T14:15:07.298Z,34.50
2018-06-20T14:18:40.710Z,34.20
2018-06-20T14:22:14.076Z,33.70
2018-06-20T14:25:47.854Z,33.10
2018-06-20T14:29:21.518Z,32.30
2018-06-20T14:36:43.919Z,31.40
2018-06-20T14:44:01.326Z,31.20
2018-06-20T14:47:34.971Z,30.60
2018-06-20T14:51:08.352Z,29.90
2018-06-20T14:54:41.604Z,29.80
2018-06-20T14:58:14.872Z,29.60
2018-06-20T15:01:48.142Z,29.40
2018-06-20T15:05:21.458Z,29.10
2018-06-20T15:08:54.716Z,29.10
2018-06-20T15:12:27.996Z,28.70
2018-06-20T15:16:06.515Z,29.00
2018-06-20T15:23:12.853Z,28.70
2018-06-20T15:26:51.508Z,28.40
2018-06-20T15:30:30.284Z,28.50
2018-06-20T15:34:10.193Z,28.20
2018-06-20T15:37:49.950Z,27.90
2018-06-20T15:41:24.149Z,28.00
2018-06-20T15:44:57.418Z,27.70
2018-06-20T15:48:31.025Z,27.90
2018-06-20T15:52:04.350Z,28.60
2018-06-20T15:55:37.656Z,29.00
2018-06-20T15:59:10.943Z,29.40
2018-06-20T16:02:44.470Z,29.80
2018-06-20T16:06:17.833Z,30.00
2018-06-20T16:09:54.208Z,29.90
2018-06-20T16:13:27.421Z,29.50
2018-06-20T16:17:00.787Z,29.20
2018-06-20T16:24:17.924Z,28.50
2018-06-20T16:27:56.511Z,28.40
2018-06-20T16:31:31.849Z,28.50
2018-06-20T16:35:05.210Z,29.00
2018-06-20T16:42:11.523Z,30.50
2018-06-20T16:45:44.809Z,31.50
2018-06-20T16:49:18.083Z,32.10
2018-06-20T16:52:51.372Z,32.90
2018-06-20T16:56:24.648Z,33.70
2018-06-20T16:59:58.024Z,34.40
2018-06-20T17:03:31.331Z,34.60
2018-06-20T17:07:04.820Z,34.80
2018-06-20T17:10:38.084Z,35.00
2018-06-20T17:14:16.707Z,35.40
2018-06-20T17:17:55.330Z,35.50
2018-06-20T17:21:36.737Z,35.90
2018-06-20T17:25:42.493Z,36.00
2018-06-20T17:29:15.776Z,36.20
2018-06-20T17:32:49.095Z,36.30
2018-06-20T17:36:22.406Z,36.30
2018-06-20T17:39:56.357Z,36.50
2018-06-20T17:43:29.684Z,36.60
2018-06-20T17:47:02.934Z,36.70
2018-06-20T17:54:09.205Z,37.20
2018-06-20T17:57:42.452Z,37.10
2018-06-20T18:01:15.731Z,37.20
2018-06-20T18:04:54.539Z,37.40
2018-06-20T18:08:33.036Z,37.50
2018-06-20T18:12:11.988Z,37.60
2018-06-20T18:15:50.616Z,37.80
2018-06-20T18:19:23.967Z,37.80
2018-06-20T18:22:57.220Z,37.90
2018-06-20T18:26:30.523Z,38.00
2018-06-20T18:30:03.868Z,38.40
2018-06-20T18:33:37.132Z,38.80
2018-06-20T18:37:10.417Z,39.30
2018-06-20T18:40:44.177Z,39.60
2018-06-20T18:44:17.448Z,40.00
2018-06-20T18:47:56.115Z,40.20
2018-06-20T18:51:29.429Z,40.40
2018-06-20T18:55:02.712Z,40.70
2018-06-20T18:58:41.452Z,41.00
2018-06-20T19:02:20.006Z,41.30
2018-06-20T19:05:58.942Z,41.60
2018-06-20T19:09:32.249Z,41.90
2018-06-20T19:13:05.657Z,42.20
2018-06-20T19:16:38.916Z,42.50
2018-06-20T19:20:12.178Z,42.80
2018-06-20T19:23:45.468Z,43.10
2018-06-20T19:27:18.757Z,43.30
2018-06-20T19:30:52.092Z,43.60
2018-06-20T19:34:25.575Z,44.00
2018-06-20T19:37:58.834Z,44.20
2018-06-20T19:41:32.116Z,44.60
2018-06-20T19:45:05.388Z,44.80
2018-06-20T19:48:38.668Z,45.10
2018-06-20T19:52:11.969Z,45.40
2018-06-20T19:55:45.308Z,45.60
2018-06-20T19:59:18.632Z,46.00
2018-06-20T20:02:52.735Z,46.60
2018-06-20T20:06:26.029Z,46.80
2018-06-20T20:09:59.284Z,47.10
2018-06-20T20:13:32.543Z,47.40
2018-06-20T20:17:05.973Z,47.50
2018-06-20T20:20:39.337Z,47.70
2018-06-20T20:24:12.606Z,48.00
2018-06-20T20:27:45.920Z,48.10
2018-06-20T20:34:52.608Z,48.70
2018-06-20T20:38:25.913Z,48.90
2018-06-20T20:41:59.244Z,49.20
2018-06-20T20:45:32.570Z,49.50
2018-06-20T20:49:05.987Z,49.70
2018-06-20T20:52:39.329Z,49.90
2018-06-20T20:56:12.636Z,50.20
2018-06-20T20:59:45.936Z,50.20
2018-06-20T21:10:25.356Z,50.60
2018-06-20T21:13:59.514Z,50.70
2018-06-20T21:17:32.857Z,51.10
2018-06-20T21:24:39.396Z,51.40
2018-06-20T21:28:13.764Z,51.60
2018-06-20T21:35:21.686Z,52.80
2018-06-20T21:38:55.014Z,52.30
2018-06-20T21:42:28.292Z,52.50
2018-06-20T21:46:01.729Z,52.80
2018-06-20T21:49:35.079Z,52.80
2018-06-20T21:53:08.360Z,52.90
2018-06-20T21:56:41.619Z,53.10
2018-06-20T22:00:14.889Z,53.40
2018-06-20T22:03:48.161Z,53.50
2018-06-20T22:07:21.504Z,53.70
2018-06-20T22:10:54.779Z,53.90
2018-06-20T22:14:28.028Z,54.10
2018-06-20T22:21:34.329Z,54.40
2018-06-20T22:25:07.595Z,54.60
2018-06-20T22:28:41.032Z,54.80
2018-06-20T22:32:14.376Z,54.90
2018-06-20T22:35:47.633Z,55.10
2018-06-20T22:39:21.780Z,55.90
2018-06-20T22:42:55.244Z,55.50
2018-06-20T22:53:34.952Z,56.70
2018-06-20T23:00:41.309Z,57.10
2018-06-20T23:04:14.593Z,57.50
2018-06-20T23:07:47.833Z,57.60
2018-06-20T23:11:21.560Z,57.60
2018-06-20T23:18:28.036Z,57.90
2018-06-20T23:22:01.273Z,58.10
2018-06-20T23:25:34.525Z,58.20
2018-06-20T23:29:07.809Z,58.30
2018-06-20T23:32:41.116Z,58.50
2018-06-20T23:36:14.467Z,58.50
2018-06-20T23:39:47.768Z,58.60
2018-06-20T23:43:21.022Z,58.70
2018-06-20T23:46:54.275Z,58.70
2018-06-20T23:50:27.524Z,59.00
2018-06-20T23:54:00.792Z,59.00
2018-06-20T23:57:34.340Z,59.10
